createdAt,value
2017-10-22T00:00:10.444Z,29.6
2017-10-22T00:01:10.189Z,29.6
2017-10-22T00:02:10.564Z,29.5
2017-10-22T00:03:08.698Z,29.6
2017-10-22T00:04:10.297Z,29.6
2017-10-22T00:05:10.649Z,29.5
2017-10-22T00:06:09.022Z,29.6
2017-10-22T00:07:08.764Z,29.5
2017-10-22T00:08:08.842Z,29.5
2017-10-22T00:09:09.132Z,29.6
2017-10-22T00:10:10.801Z,29.6
2017-10-22T00:11:10.563Z,29.5
2017-10-22T00:12:09.257Z,29.5
2017-10-22T00:13:10.917Z,29.5
2017-10-22T00:14:09.048Z,29.5
2017-10-22T00:15:10.713Z,29.5
2017-10-22T00:16:09.128Z,29.5
2017-10-22T00:17:09.185Z,29.5
2017-10-22T00:18:09.245Z,29.5
2017-10-22T00:19:10.828Z,29.5
2017-10-22T00:20:11.209Z,29.5
2017-10-22T00:21:10.927Z,29.5
2017-10-22T00:22:10.913Z,29.5
2017-10-22T00:23:11.371Z,29.5
2017-10-22T00:24:09.714Z,29.5
2017-10-22T00:25:09.505Z,29.5
2017-10-22T00:26:11.234Z,29.5
2017-10-22T00:27:11.535Z,29.5
2017-10-22T00:28:09.961Z,29.5
2017-10-22T00:29:11.407Z,29.5
2017-10-22T00:30:11.398Z,29.5
2017-10-22T00:31:11.393Z,29.5
2017-10-22T00:32:11.799Z,29.5
2017-10-22T00:33:10.260Z,29.5
2017-10-22T00:34:10.290Z,29.5
2017-10-22T00:35:11.989Z,29.5
2017-10-22T00:36:10.115Z,29.5
2017-10-22T00:37:10.215Z,29.5
2017-10-22T00:38:10.281Z,29.5
2017-10-22T00:39:12.261Z,29.5
2017-10-22T00:40:12.274Z,29.5
2017-10-22T00:41:12.428Z,29.5
2017-10-22T00:42:12.136Z,29.5
2017-10-22T00:43:10.936Z,29.5
2017-10-22T00:44:10.747Z,29.5
2017-10-22T00:45:10.660Z,29.5
2017-10-22T00:46:12.751Z,29.5
2017-10-22T00:47:11.044Z,29.5
2017-10-22T00:48:12.751Z,29.5
2017-10-22T00:49:11.198Z,29.5
2017-10-22T00:50:12.469Z,29.5
2017-10-22T00:51:12.610Z,29.5
2017-10-22T00:52:13.019Z,29.5
2017-10-22T00:53:11.055Z,29.5
2017-10-22T00:54:11.437Z,29.5
2017-10-22T00:55:13.085Z,29.5
2017-10-22T00:56:12.779Z,29.5
2017-10-22T00:57:11.187Z,29.5
2017-10-22T00:58:12.811Z,29.5
2017-10-22T00:59:13.241Z,29.5
2017-10-22T01:00:12.879Z,29.5
2017-10-22T01:01:13.290Z,29.5
2017-10-22T01:02:11.410Z,29.5
2017-10-22T01:03:11.502Z,29.5
2017-10-22T01:04:11.458Z,29.5
2017-10-22T01:05:11.557Z,29.5
2017-10-22T01:06:13.469Z,29.5
2017-10-22T01:07:13.184Z,29.5
2017-10-22T01:08:13.521Z,29.5
2017-10-22T01:09:13.276Z,29.5
2017-10-22T01:10:13.585Z,29.5
2017-10-22T01:11:11.704Z,29.5
2017-10-22T01:12:13.387Z,29.5
2017-10-22T01:13:12.059Z,29.5
2017-10-22T01:14:11.806Z,29.5
2017-10-22T01:15:14.312Z,29.5
2017-10-22T01:16:12.345Z,29.5
2017-10-22T01:17:12.745Z,29.5
2017-10-22T01:18:14.143Z,29.5
2017-10-22T01:19:12.635Z,29.5
2017-10-22T01:20:12.660Z,29.5
2017-10-22T01:21:12.460Z,29.5
2017-10-22T01:22:14.413Z,29.5
2017-10-22T01:23:12.114Z,29.5
2017-10-22T01:24:12.170Z,29.5
2017-10-22T01:25:13.805Z,29.5
2017-10-22T01:26:12.616Z,29.5
2017-10-22T01:27:14.273Z,29.5
2017-10-22T01:28:14.000Z,29.5
2017-10-22T01:29:14.376Z,29.5
2017-10-22T01:30:12.492Z,29.5
2017-10-22T01:31:12.557Z,29.5
2017-10-22T01:32:12.618Z,29.5
2017-10-22T01:33:12.687Z,29.5
2017-10-22T01:34:14.642Z,29.5
2017-10-22T01:35:13.048Z,29.5
2017-10-22T01:36:14.780Z,29.5
2017-10-22T01:37:12.821Z,29.5
2017-10-22T01:38:14.805Z,29.5
2017-10-22T01:39:14.832Z,29.5
2017-10-22T01:40:14.914Z,29.5
2017-10-22T01:41:14.651Z,29.5
2017-10-22T01:42:13.139Z,29.5
2017-10-22T01:43:13.443Z,29.5
2017-10-22T01:44:13.506Z,29.5
2017-10-22T01:45:15.394Z,29.5
2017-10-22T01:46:13.643Z,29.5
2017-10-22T01:47:13.692Z,29.5
2017-10-22T01:48:15.576Z,29.5
2017-10-22T01:49:15.124Z,29.5
2017-10-22T01:50:14.069Z,29.5
2017-10-22T01:51:15.348Z,29.5
2017-10-22T01:52:13.918Z,29.5
2017-10-22T01:53:15.616Z,29.5
2017-10-22T01:54:13.704Z,29.5
2017-10-22T01:55:15.731Z,29.5
2017-10-22T01:56:14.150Z,29.4
2017-10-22T01:57:13.872Z,29.4
2017-10-22T01:58:13.977Z,29.4
2017-10-22T01:59:16.018Z,29.4
2017-10-22T02:00:15.985Z,29.4
2017-10-22T02:01:14.463Z,29.4
2017-10-22T02:02:16.160Z,29.4
2017-10-22T02:03:16.221Z,29.4
2017-10-22T02:04:16.230Z,29.4
2017-10-22T02:05:14.697Z,29.4
2017-10-22T02:06:14.770Z,29.4
2017-10-22T02:07:14.466Z,29.4
2017-10-22T02:08:16.439Z,29.4
2017-10-22T02:09:14.558Z,29.4
2017-10-22T02:10:16.236Z,29.4
2017-10-22T02:11:14.951Z,29.4
2017-10-22T02:12:16.670Z,29.4
2017-10-22T02:13:16.368Z,29.4
2017-10-22T02:14:14.794Z,29.4
2017-10-22T02:15:14.860Z,29.4
2017-10-22T02:16:16.872Z,29.4
2017-10-22T02:17:16.913Z,29.4
2017-10-22T02:18:15.369Z,29.4
2017-10-22T02:19:16.997Z,29.4
2017-10-22T02:20:17.017Z,29.4
2017-10-22T02:21:16.773Z,29.4
2017-10-22T02:22:15.159Z,29.4
2017-10-22T02:23:16.836Z,29.4
2017-10-22T02:24:16.892Z,29.4
2017-10-22T02:25:17.227Z,29.4
2017-10-22T02:26:17.347Z,29.4
2017-10-22T02:27:17.302Z,29.4
2017-10-22T02:28:17.349Z,29.4
2017-10-22T02:29:15.466Z,29.4
2017-10-22T02:30:17.070Z,29.4
2017-10-22T02:31:17.113Z,29.5
2017-10-22T02:32:17.389Z,29.4
2017-10-22T02:33:17.416Z,29.4
2017-10-22T02:34:17.149Z,29.4
2017-10-22T02:35:15.861Z,29.4
2017-10-22T02:36:15.634Z,29.4
2017-10-22T02:37:15.998Z,29.4
2017-10-22T02:38:15.753Z,29.4
2017-10-22T02:39:15.802Z,29.4
2017-10-22T02:40:16.133Z,29.4
2017-10-22T02:41:16.159Z,29.4
2017-10-22T02:42:17.494Z,29.4
2017-10-22T02:43:15.947Z,29.4
2017-10-22T02:44:16.319Z,29.4
2017-10-22T02:45:16.388Z,29.4
2017-10-22T02:46:16.456Z,29.4
2017-10-22T02:47:17.835Z,29.4
2017-10-22T02:48:18.152Z,29.4
2017-10-22T02:49:18.257Z,29.4
2017-10-22T02:50:17.975Z,29.4
2017-10-22T02:51:17.959Z,29.4
2017-10-22T02:52:18.353Z,29.4
2017-10-22T02:53:16.481Z,29.4
2017-10-22T02:54:16.769Z,29.4
2017-10-22T02:55:16.810Z,29.4
2017-10-22T02:56:16.646Z,29.3
2017-10-22T02:57:18.571Z,29.3
2017-10-22T02:58:17.035Z,29.4
2017-10-22T02:59:18.646Z,29.4
2017-10-22T03:00:18.355Z,29.4
2017-10-22T03:01:18.331Z,29.4
2017-10-22T03:02:18.517Z,29.4
2017-10-22T03:03:18.890Z,29.4
2017-10-22T03:04:18.942Z,29.4
2017-10-22T03:05:17.337Z,29.4
2017-10-22T03:06:17.383Z,29.4
2017-10-22T03:07:19.083Z,29.4
2017-10-22T03:08:17.567Z,29.4
2017-10-22T03:09:17.541Z,29.4
2017-10-22T03:10:17.311Z,29.4
2017-10-22T03:11:19.314Z,29.4
2017-10-22T03:12:19.116Z,29.4
2017-10-22T03:13:17.528Z,29.4
2017-10-22T03:14:17.614Z,29.4
2017-10-22T03:15:17.915Z,29.4
2017-10-22T03:16:17.676Z,29.4
2017-10-22T03:17:18.028Z,29.4
2017-10-22T03:18:19.719Z,29.4
2017-10-22T03:19:19.475Z,29.4
2017-10-22T03:20:19.466Z,29.4
2017-10-22T03:21:18.259Z,29.4
2017-10-22T03:22:18.026Z,29.4
2017-10-22T03:23:19.962Z,29.4
2017-10-22T03:24:20.026Z,29.3
2017-10-22T03:25:18.409Z,29.4
2017-10-22T03:26:18.493Z,29.3
2017-10-22T03:27:18.280Z,29.3
2017-10-22T03:28:18.315Z,29.3
2017-10-22T03:29:18.653Z,29.3
2017-10-22T03:30:20.286Z,29.4
2017-10-22T03:31:19.942Z,29.3
2017-10-22T03:32:18.743Z,29.3
2017-10-22T03:33:20.505Z,29.3
2017-10-22T03:34:20.478Z,29.3
2017-10-22T03:35:18.586Z,29.3
2017-10-22T03:36:20.592Z,29.3
2017-10-22T03:37:20.613Z,29.3
2017-10-22T03:38:18.731Z,29.3
2017-10-22T03:39:18.784Z,29.3
2017-10-22T03:40:20.812Z,29.3
2017-10-22T03:41:19.175Z,29.3
2017-10-22T03:42:20.562Z,29.3
2017-10-22T03:43:19.258Z,29.3
2017-10-22T03:44:20.917Z,29.3
2017-10-22T03:45:20.880Z,29.3
2017-10-22T03:46:18.992Z,29.3
2017-10-22T03:47:19.080Z,29.3
2017-10-22T03:48:19.492Z,29.3
2017-10-22T03:49:21.163Z,29.3
2017-10-22T03:50:19.301Z,29.3
2017-10-22T03:51:20.970Z,29.3
2017-10-22T03:52:21.316Z,29.3
2017-10-22T03:53:19.466Z,29.3
2017-10-22T03:54:21.483Z,29.3
2017-10-22T03:55:21.555Z,29.3
2017-10-22T03:56:19.920Z,29.3
2017-10-22T03:57:19.706Z,29.3
2017-10-22T03:58:20.063Z,29.3
2017-10-22T03:59:19.822Z,29.3
2017-10-22T04:00:19.887Z,29.3
2017-10-22T04:01:21.583Z,29.3
2017-10-22T04:02:21.901Z,29.3
2017-10-22T04:03:20.028Z,29.3
2017-10-22T04:04:20.385Z,29.3
2017-10-22T04:05:20.402Z,29.3
2017-10-22T04:06:20.242Z,29.3
2017-10-22T04:07:21.893Z,29.3
2017-10-22T04:08:21.983Z,29.3
2017-10-22T04:09:20.766Z,29.3
2017-10-22T04:10:20.827Z,29.3
2017-10-22T04:11:20.601Z,29.3
2017-10-22T04:12:22.278Z,29.3
2017-10-22T04:13:20.717Z,29.3
2017-10-22T04:14:20.697Z,29.3
2017-10-22T04:15:21.079Z,29.3
2017-10-22T04:16:22.735Z,29.3
2017-10-22T04:17:22.826Z,29.3
2017-10-22T04:18:21.209Z,29.3
2017-10-22T04:19:22.892Z,29.3
2017-10-22T04:20:22.601Z,29.3
2017-10-22T04:21:22.963Z,29.3
2017-10-22T04:22:23.020Z,29.3
2017-10-22T04:23:22.739Z,29.3
2017-10-22T04:24:22.763Z,29.3
2017-10-22T04:25:21.175Z,29.3
2017-10-22T04:26:22.810Z,29.3
2017-10-22T04:27:22.918Z,29.3
2017-10-22T04:28:21.342Z,29.3
2017-10-22T04:29:23.350Z,29.3
2017-10-22T04:30:21.782Z,29.3
2017-10-22T04:31:23.468Z,29.3
2017-10-22T04:32:21.583Z,29.3
2017-10-22T04:33:22.253Z,29.3
2017-10-22T04:34:23.326Z,29.2
2017-10-22T04:35:23.323Z,29.3
2017-10-22T04:36:23.784Z,29.3
2017-10-22T04:37:21.919Z,29.3
2017-10-22T04:38:22.308Z,29.2
2017-10-22T04:39:22.325Z,29.3
2017-10-22T04:40:23.729Z,29.3
2017-10-22T04:41:24.107Z,29.3
2017-10-22T04:42:23.798Z,29.3
2017-10-22T04:43:22.479Z,29.3
2017-10-22T04:44:22.274Z,29.2
2017-10-22T04:45:23.881Z,29.2
2017-10-22T04:46:22.597Z,29.2
2017-10-22T04:47:22.385Z,29.3
2017-10-22T04:48:22.814Z,29.2
2017-10-22T04:49:24.094Z,29.2
2017-10-22T04:50:22.856Z,29.2
2017-10-22T04:51:22.971Z,29.2
2017-10-22T04:52:24.590Z,29.2
2017-10-22T04:53:24.393Z,29.2
2017-10-22T04:54:24.363Z,29.3
2017-10-22T04:55:22.771Z,29.3
2017-10-22T04:56:24.720Z,29.2
2017-10-22T04:57:24.816Z,29.2
2017-10-22T04:58:23.199Z,29.2
2017-10-22T04:59:23.236Z,29.2
2017-10-22T05:00:24.633Z,29.2
2017-10-22T05:01:24.680Z,29.2
2017-10-22T05:02:25.051Z,29.2
2017-10-22T05:03:25.037Z,29.2
2017-10-22T05:04:25.066Z,29.2
2017-10-22T05:05:23.166Z,29.2
2017-10-22T05:06:24.864Z,29.2
2017-10-22T05:07:25.232Z,29.2
2017-10-22T05:08:23.595Z,29.2
2017-10-22T05:09:23.365Z,29.2
2017-10-22T05:10:25.313Z,29.2
2017-10-22T05:11:25.338Z,29.2
2017-10-22T05:12:23.686Z,29.2
2017-10-22T05:13:23.451Z,29.2
2017-10-22T05:14:25.434Z,29.2
2017-10-22T05:15:23.835Z,29.2
2017-10-22T05:16:23.886Z,29.2
2017-10-22T05:17:23.947Z,29.2
2017-10-22T05:18:25.637Z,29.2
2017-10-22T05:19:25.343Z,29.2
2017-10-22T05:20:25.415Z,29.2
2017-10-22T05:21:24.111Z,29.2
2017-10-22T05:22:24.195Z,29.2
2017-10-22T05:23:25.615Z,29.1
2017-10-22T05:24:24.285Z,29.2
2017-10-22T05:25:24.365Z,29.2
2017-10-22T05:26:24.423Z,29.1
2017-10-22T05:27:25.801Z,29.2
2017-10-22T05:28:24.493Z,29.2
2017-10-22T05:29:24.251Z,29.1
2017-10-22T05:30:26.067Z,29.1
2017-10-22T05:31:26.001Z,29.1
2017-10-22T05:32:26.043Z,29.1
2017-10-22T05:33:24.721Z,29.1
2017-10-22T05:34:26.393Z,29.2
2017-10-22T05:35:26.494Z,29.2
2017-10-22T05:36:26.146Z,29.2
2017-10-22T05:37:24.668Z,29.2
2017-10-22T05:38:24.743Z,29.2
2017-10-22T05:39:25.056Z,29.1
2017-10-22T05:40:25.087Z,29.1
2017-10-22T05:41:26.869Z,29.1
2017-10-22T05:42:26.573Z,29.1
2017-10-22T05:43:26.604Z,29.1
2017-10-22T05:44:26.644Z,29.1
2017-10-22T05:45:27.160Z,29.1
2017-10-22T05:46:26.840Z,29.1
2017-10-22T05:47:27.197Z,29.1
2017-10-22T05:48:27.244Z,29.1
2017-10-22T05:49:25.593Z,29.1
2017-10-22T05:50:25.690Z,29.1
2017-10-22T05:51:25.686Z,29.1
2017-10-22T05:52:25.752Z,29.1
2017-10-22T05:53:27.428Z,29.1
2017-10-22T05:54:27.156Z,29.1
2017-10-22T05:55:25.826Z,29.1
2017-10-22T05:56:27.628Z,29.1
2017-10-22T05:57:27.328Z,29.1
2017-10-22T05:58:27.681Z,29.1
2017-10-22T05:59:27.768Z,29.1
2017-10-22T06:00:26.136Z,29.1
2017-10-22T06:01:27.485Z,29.1
2017-10-22T06:02:27.522Z,29.1
2017-10-22T06:03:25.982Z,29.1
2017-10-22T06:04:26.012Z,29.1
2017-10-22T06:05:26.074Z,29.1
2017-10-22T06:06:26.403Z,29.1
2017-10-22T06:07:26.463Z,29.1
2017-10-22T06:08:27.827Z,29.1
2017-10-22T06:09:26.307Z,29.1
2017-10-22T06:10:26.348Z,29.1
2017-10-22T06:11:26.327Z,29.1
2017-10-22T06:12:28.329Z,29.1
2017-10-22T06:13:26.433Z,29.1
2017-10-22T06:14:26.803Z,29.1
2017-10-22T06:15:28.201Z,29.1
2017-10-22T06:16:26.643Z,29.1
2017-10-22T06:17:26.741Z,29.1
2017-10-22T06:18:28.663Z,29.1
2017-10-22T06:19:27.056Z,29.1
2017-10-22T06:20:28.441Z,29.1
2017-10-22T06:21:26.977Z,29.1
2017-10-22T06:22:28.881Z,29.1
2017-10-22T06:23:27.277Z,29.1
2017-10-22T06:24:26.972Z,29.1
2017-10-22T06:25:27.332Z,29.1
2017-10-22T06:26:28.690Z,29.1
2017-10-22T06:27:29.165Z,29.1
2017-10-22T06:28:27.219Z,29.1
2017-10-22T06:29:28.886Z,29.1
2017-10-22T06:30:27.339Z,29.1
2017-10-22T06:31:27.698Z,29.1
2017-10-22T06:32:29.123Z,29.1
2017-10-22T06:33:27.511Z,29.1
2017-10-22T06:34:29.218Z,29.1
2017-10-22T06:35:27.685Z,29.1
2017-10-22T06:36:29.597Z,29.1
2017-10-22T06:37:27.747Z,29.1
2017-10-22T06:38:29.459Z,29.1
2017-10-22T06:39:29.839Z,29.1
2017-10-22T06:40:29.523Z,29
2017-10-22T06:41:28.322Z,29
2017-10-22T06:42:28.329Z,29
2017-10-22T06:43:29.683Z,29
2017-10-22T06:44:28.458Z,29.1
2017-10-22T06:45:29.852Z,29.1
2017-10-22T06:46:29.911Z,29.1
2017-10-22T06:47:28.322Z,29.1
2017-10-22T06:48:30.352Z,29.1
2017-10-22T06:49:28.886Z,29.1
2017-10-22T06:50:30.471Z,29.1
2017-10-22T06:51:30.529Z,29.1
2017-10-22T06:52:30.627Z,29.1
2017-10-22T06:53:30.614Z,29.1
2017-10-22T06:54:30.336Z,29.1
2017-10-22T06:55:28.993Z,29.1
2017-10-22T06:56:30.404Z,29.1
2017-10-22T06:57:30.766Z,29.1
2017-10-22T06:58:30.556Z,29.1
2017-10-22T06:59:30.881Z,29.1
2017-10-22T07:00:29.343Z,29.1
2017-10-22T07:01:30.646Z,29.1
2017-10-22T07:02:31.075Z,29.1
2017-10-22T07:03:30.793Z,29.1
2017-10-22T07:04:29.182Z,29.1
2017-10-22T07:05:31.141Z,29.1
2017-10-22T07:06:31.234Z,29.1
2017-10-22T07:07:31.268Z,29.1
2017-10-22T07:08:31.292Z,29.1
2017-10-22T07:09:31.382Z,29.1
2017-10-22T07:10:31.142Z,29.1
2017-10-22T07:11:31.156Z,29.1
2017-10-22T07:12:31.499Z,29.1
2017-10-22T07:13:31.532Z,29.1
2017-10-22T07:14:31.541Z,29.1
2017-10-22T07:20:08.775Z,29
2017-10-22T07:21:10.448Z,29
2017-10-22T07:22:10.465Z,29
2017-10-22T07:23:10.155Z,29
2017-10-22T07:24:10.245Z,29
2017-10-22T07:25:10.642Z,29
2017-10-22T07:26:10.699Z,29
2017-10-22T07:27:09.105Z,29
2017-10-22T07:28:10.481Z,29
2017-10-22T07:29:08.898Z,29
2017-10-22T07:30:10.869Z,29.1
2017-10-22T07:31:09.025Z,29.1
2017-10-22T07:32:10.737Z,29.1
2017-10-22T07:33:10.994Z,29.1
2017-10-22T07:34:09.157Z,29.1
2017-10-22T07:35:10.875Z,29.1
2017-10-22T07:36:09.580Z,29.1
2017-10-22T07:37:09.607Z,29.1
2017-10-22T07:38:09.609Z,29.1
2017-10-22T07:39:09.339Z,29.1
2017-10-22T07:40:09.702Z,29.1
2017-10-22T07:41:11.051Z,29.1
2017-10-22T07:42:09.830Z,29.1
2017-10-22T07:43:09.879Z,29.1
2017-10-22T07:44:11.576Z,29.1
2017-10-22T07:45:11.653Z,29.1
2017-10-22T07:46:11.743Z,29.1
2017-10-22T07:47:09.884Z,29.1
2017-10-22T07:48:10.204Z,29.2
2017-10-22T07:49:11.872Z,29.2
2017-10-22T07:50:10.017Z,29.2
2017-10-22T07:51:10.001Z,29.2
2017-10-22T07:52:10.105Z,29.2
2017-10-22T07:53:10.109Z,29.2
2017-10-22T07:54:10.475Z,29.2
2017-10-22T07:55:10.235Z,29.2
2017-10-22T07:56:10.595Z,29.2
2017-10-22T07:57:10.667Z,29.2
2017-10-22T07:58:10.769Z,29.2
2017-10-22T07:59:10.775Z,29.2
2017-10-22T08:00:10.834Z,29.2
2017-10-22T08:01:12.232Z,29.2
2017-10-22T08:02:10.930Z,29.2
2017-10-22T08:03:10.679Z,29.2
2017-10-22T08:04:12.323Z,29.2
2017-10-22T08:05:12.758Z,29.2
2017-10-22T08:06:12.446Z,29.2
2017-10-22T08:07:12.494Z,29.3
2017-10-22T08:08:10.920Z,29.3
2017-10-22T08:09:10.999Z,29.3
2017-10-22T08:10:13.044Z,29.3
2017-10-22T08:11:13.149Z,29.3
2017-10-22T08:12:13.172Z,29.3
2017-10-22T08:13:13.150Z,29.3
2017-10-22T08:14:11.245Z,29.3
2017-10-22T08:15:13.273Z,29.3
2017-10-22T08:16:12.911Z,29.3
2017-10-22T08:17:13.378Z,29.3
2017-10-22T08:18:11.747Z,29.3
2017-10-22T08:19:11.527Z,29.3
2017-10-22T08:20:13.223Z,29.3
2017-10-22T08:21:11.644Z,29.3
2017-10-22T08:22:13.330Z,29.3
2017-10-22T08:23:12.038Z,29.3
2017-10-22T08:24:12.105Z,29.3
2017-10-22T08:25:13.486Z,29.3
2017-10-22T08:26:12.162Z,29.3
2017-10-22T08:27:12.190Z,29.3
2017-10-22T08:28:12.243Z,29.3
2017-10-22T08:29:12.333Z,29.3
2017-10-22T08:30:12.359Z,29.3
2017-10-22T08:31:12.150Z,29.3
2017-10-22T08:32:14.123Z,29.3
2017-10-22T08:33:14.156Z,29.4
2017-10-22T08:34:12.258Z,29.4
2017-10-22T08:35:12.336Z,29.4
2017-10-22T08:36:12.418Z,29.4
2017-10-22T08:37:12.788Z,29.4
2017-10-22T08:38:12.817Z,29.4
2017-10-22T08:39:14.534Z,29.4
2017-10-22T08:40:12.912Z,29.4
2017-10-22T08:41:14.653Z,29.4
2017-10-22T08:42:14.304Z,29.4
2017-10-22T08:43:13.094Z,29.4
2017-10-22T08:44:14.506Z,29.4
2017-10-22T08:45:12.906Z,29.4
2017-10-22T08:46:12.925Z,29.4
2017-10-22T08:47:14.902Z,29.4
2017-10-22T08:48:13.335Z,29.4
2017-10-22T08:49:13.464Z,29.5
2017-10-22T08:50:14.831Z,29.5
2017-10-22T08:51:15.247Z,29.5
2017-10-22T08:52:15.313Z,29.6
2017-10-22T08:53:13.418Z,29.6
2017-10-22T08:54:13.408Z,29.6
2017-10-22T08:55:13.712Z,29.6
2017-10-22T08:56:15.087Z,29.6
2017-10-22T08:57:15.409Z,29.6
2017-10-22T08:58:13.550Z,29.6
2017-10-22T08:59:15.498Z,29.6
2017-10-22T09:00:15.514Z,29.6
2017-10-22T09:01:15.548Z,29.6
2017-10-22T09:02:15.583Z,29.6
2017-10-22T09:03:15.351Z,29.6
2017-10-22T09:04:13.737Z,29.6
2017-10-22T09:05:13.782Z,29.6
2017-10-22T09:06:13.853Z,29.7
2017-10-22T09:07:13.943Z,29.7
2017-10-22T09:08:14.296Z,29.7
2017-10-22T09:09:15.972Z,29.7
2017-10-22T09:10:15.696Z,29.7
2017-10-22T09:11:14.089Z,29.7
2017-10-22T09:12:16.117Z,29.7
2017-10-22T09:13:15.815Z,29.7
2017-10-22T09:14:14.303Z,29.7
2017-10-22T09:15:16.233Z,29.7
2017-10-22T09:16:16.293Z,29.7
2017-10-22T09:17:14.411Z,29.7
2017-10-22T09:18:16.380Z,29.7
2017-10-22T09:19:14.585Z,29.7
2017-10-22T09:20:14.860Z,29.7
2017-10-22T09:21:16.574Z,29.7
2017-10-22T09:22:16.318Z,29.6
2017-10-22T09:23:16.729Z,29.6
2017-10-22T09:24:16.770Z,29.6
2017-10-22T09:25:16.432Z,29.6
2017-10-22T09:26:16.474Z,29.6
2017-10-22T09:27:16.804Z,29.6
2017-10-22T09:28:15.325Z,29.6
2017-10-22T09:29:15.308Z,29.6
2017-10-22T09:30:16.881Z,29.6
2017-10-22T09:31:17.062Z,29.6
2017-10-22T09:32:15.269Z,29.6
2017-10-22T09:33:17.221Z,29.6
2017-10-22T09:34:16.980Z,29.6
2017-10-22T09:35:16.994Z,29.6
2017-10-22T09:36:17.051Z,29.6
2017-10-22T09:37:17.492Z,29.6
2017-10-22T09:38:15.606Z,29.5
2017-10-22T09:39:17.310Z,29.5
2017-10-22T09:40:16.027Z,29.5
2017-10-22T09:41:15.806Z,29.5
2017-10-22T09:42:16.179Z,29.5
2017-10-22T09:43:17.527Z,29.5
2017-10-22T09:44:17.888Z,29.5
2017-10-22T09:45:15.963Z,29.5
2017-10-22T09:46:16.053Z,29.5
2017-10-22T09:47:16.441Z,29.5
2017-10-22T09:48:17.736Z,29.5
2017-10-22T09:49:18.139Z,29.5
2017-10-22T09:50:17.889Z,29.5
2017-10-22T09:51:17.911Z,29.5
2017-10-22T09:52:17.927Z,29.5
2017-10-22T09:53:17.948Z,29.5
2017-10-22T09:54:16.399Z,29.5
2017-10-22T09:55:18.072Z,29.5
2017-10-22T09:56:18.102Z,29.5
2017-10-22T09:57:16.527Z,29.5
2017-10-22T09:58:18.571Z,29.5
2017-10-22T09:59:17.023Z,29.5
2017-10-22T10:00:17.027Z,29.5
2017-10-22T10:01:18.470Z,29.5
2017-10-22T10:02:17.179Z,29.5
2017-10-22T10:03:17.305Z,29.5
2017-10-22T10:04:16.989Z,29.5
2017-10-22T10:05:17.047Z,29.5
2017-10-22T10:06:18.762Z,29.5
2017-10-22T10:07:19.091Z,29.5
2017-10-22T10:08:18.807Z,29.5
2017-10-22T10:09:18.799Z,29.5
2017-10-22T10:10:17.545Z,29.5
2017-10-22T10:11:17.333Z,29.5
2017-10-22T10:12:19.272Z,29.5
2017-10-22T10:13:17.378Z,29.5
2017-10-22T10:14:17.653Z,29.5
2017-10-22T10:15:19.399Z,29.5
2017-10-22T10:16:17.859Z,29.5
2017-10-22T10:17:17.608Z,29.5
2017-10-22T10:18:17.648Z,29.5
2017-10-22T10:19:19.309Z,29.5
2017-10-22T10:20:17.766Z,29.5
2017-10-22T10:21:19.777Z,29.5
2017-10-22T10:22:17.870Z,29.5
2017-10-22T10:23:18.180Z,29.5
2017-10-22T10:24:17.974Z,29.5
2017-10-22T10:25:19.922Z,29.5
2017-10-22T10:26:18.389Z,29.5
2017-10-22T10:27:18.151Z,29.5
2017-10-22T10:28:18.527Z,29.5
2017-10-22T10:29:19.875Z,29.5
2017-10-22T10:30:18.615Z,29.5
2017-10-22T10:31:18.666Z,29.5
2017-10-22T10:32:20.023Z,29.5
2017-10-22T10:33:20.019Z,29.5
2017-10-22T10:34:20.119Z,29.5
2017-10-22T10:35:18.934Z,29.5
2017-10-22T10:36:18.723Z,29.5
2017-10-22T10:37:20.770Z,29.5
2017-10-22T10:38:20.816Z,29.5
2017-10-22T10:39:20.532Z,29.5
2017-10-22T10:40:20.585Z,29.5
2017-10-22T10:41:20.609Z,29.5
2017-10-22T10:42:20.970Z,29.5
2017-10-22T10:43:19.212Z,29.5
2017-10-22T10:44:20.855Z,29.5
2017-10-22T10:45:20.828Z,29.5
2017-10-22T10:46:19.538Z,29.5
2017-10-22T10:47:19.338Z,29.5
2017-10-22T10:48:21.052Z,29.5
2017-10-22T10:49:19.541Z,29.5
2017-10-22T10:50:21.485Z,29.5
2017-10-22T10:51:21.208Z,29.5
2017-10-22T10:52:21.550Z,29.5
2017-10-22T10:53:19.973Z,29.5
2017-10-22T10:54:21.675Z,29.5
2017-10-22T10:55:20.114Z,29.5
2017-10-22T10:56:21.799Z,29.5
2017-10-22T10:57:20.189Z,29.5
2017-10-22T10:58:21.613Z,29.5
2017-10-22T10:59:20.345Z,29.5
2017-10-22T11:00:21.947Z,29.5
2017-10-22T11:01:21.938Z,29.6
2017-10-22T11:02:22.038Z,29.6
2017-10-22T11:03:20.431Z,29.5
2017-10-22T11:04:22.115Z,29.5
2017-10-22T11:05:20.220Z,29.6
2017-10-22T11:06:20.551Z,29.5
2017-10-22T11:07:22.234Z,29.5
2017-10-22T11:08:22.278Z,29.5
2017-10-22T11:09:20.676Z,29.6
2017-10-22T11:10:20.720Z,29.6
2017-10-22T11:11:22.382Z,29.6
2017-10-22T11:12:22.462Z,29.6
2017-10-22T11:13:20.829Z,29.6
2017-10-22T11:14:20.560Z,29.6
2017-10-22T11:15:22.199Z,29.6
2017-10-22T11:16:20.672Z,29.6
2017-10-22T11:17:22.680Z,29.6
2017-10-22T11:18:22.740Z,29.6
2017-10-22T11:19:20.836Z,29.6
2017-10-22T11:20:21.162Z,29.6
2017-10-22T11:21:22.569Z,29.6
2017-10-22T11:22:20.972Z,29.6
2017-10-22T11:23:21.056Z,29.6
2017-10-22T11:24:22.743Z,29.6
2017-10-22T11:25:22.781Z,29.6
2017-10-22T11:26:21.470Z,29.6
2017-10-22T11:27:22.875Z,29.6
2017-10-22T11:28:21.575Z,29.6
2017-10-22T11:29:22.912Z,29.6
2017-10-22T11:30:21.713Z,29.6
2017-10-22T11:31:21.811Z,29.6
2017-10-22T11:32:21.849Z,29.6
2017-10-22T11:33:23.519Z,29.6
2017-10-22T11:34:21.528Z,29.6
2017-10-22T11:35:23.557Z,29.6
2017-10-22T11:36:21.957Z,29.7
2017-10-22T11:37:21.727Z,29.7
2017-10-22T11:38:23.403Z,29.7
2017-10-22T11:39:23.437Z,29.8
2017-10-22T11:40:23.540Z,29.8
2017-10-22T11:41:23.569Z,29.9
2017-10-22T11:42:23.596Z,29.9
2017-10-22T11:43:23.668Z,29.9
2017-10-22T11:44:22.090Z,29.9
2017-10-22T11:45:22.125Z,29.9
2017-10-22T11:46:22.218Z,29.9
2017-10-22T11:47:24.274Z,29.8
2017-10-22T11:48:22.378Z,29.8
2017-10-22T11:49:24.036Z,29.8
2017-10-22T11:50:24.115Z,29.8
2017-10-22T11:51:24.599Z,29.8
2017-10-22T11:52:24.581Z,29.8
2017-10-22T11:53:24.257Z,29.8
2017-10-22T11:54:24.311Z,29.8
2017-10-22T11:55:22.735Z,29.8
2017-10-22T11:56:24.709Z,29.8
2017-10-22T11:57:24.795Z,29.8
2017-10-22T11:58:23.214Z,29.8
2017-10-22T11:59:23.263Z,29.8
2017-10-22T12:00:24.689Z,29.8
2017-10-22T12:01:25.026Z,29.8
2017-10-22T12:02:23.134Z,29.8
2017-10-22T12:03:25.150Z,29.8
2017-10-22T12:04:23.553Z,29.8
2017-10-22T12:05:23.307Z,29.8
2017-10-22T12:06:23.637Z,29.8
2017-10-22T12:07:23.678Z,29.8
2017-10-22T12:08:23.647Z,29.8
2017-10-22T12:09:25.280Z,29.8
2017-10-22T12:10:23.382Z,29.8
2017-10-22T12:11:23.438Z,29.8
2017-10-22T12:12:23.788Z,29.8
2017-10-22T12:13:23.857Z,29.8
2017-10-22T12:14:25.223Z,29.8
2017-10-22T12:15:25.593Z,29.8
2017-10-22T12:16:25.673Z,29.8
2017-10-22T12:17:24.067Z,29.8
2017-10-22T12:18:24.130Z,29.8
2017-10-22T12:19:23.862Z,29.8
2017-10-22T12:20:24.116Z,29.8
2017-10-22T12:21:25.817Z,29.8
2017-10-22T12:22:25.638Z,29.9
2017-10-22T12:23:24.053Z,29.8
2017-10-22T12:24:25.747Z,29.8
2017-10-22T12:25:25.772Z,29.8
2017-10-22T12:26:25.829Z,29.8
2017-10-22T12:27:26.170Z,29.9
2017-10-22T12:28:26.231Z,29.9
2017-10-22T12:29:24.357Z,29.9
2017-10-22T12:30:24.723Z,29.9
2017-10-22T12:31:26.417Z,29.9
2017-10-22T12:32:26.419Z,29.9
2017-10-22T12:33:24.894Z,29.9
2017-10-22T12:34:26.186Z,29.9
2017-10-22T12:35:26.516Z,29.9
2017-10-22T12:36:24.881Z,30
2017-10-22T12:37:24.980Z,30
2017-10-22T12:38:26.409Z,30
2017-10-22T12:39:26.762Z,30
2017-10-22T12:40:26.465Z,30
2017-10-22T12:41:26.616Z,30
2017-10-22T12:42:25.291Z,30
2017-10-22T12:43:27.050Z,30
2017-10-22T12:44:25.389Z,30.1
2017-10-22T12:45:27.167Z,30.1
2017-10-22T12:46:27.206Z,30.1
2017-10-22T12:47:25.315Z,30.2
2017-10-22T12:48:27.301Z,30.2
2017-10-22T12:49:27.047Z,30.2
2017-10-22T12:50:27.418Z,30.3
2017-10-22T12:51:25.836Z,30.3
2017-10-22T12:52:27.234Z,30.3
2017-10-22T12:53:27.261Z,30.4
2017-10-22T12:54:27.330Z,30.4
2017-10-22T12:55:25.999Z,30.4
2017-10-22T12:56:27.351Z,30.3
2017-10-22T12:57:26.304Z,30.3
2017-10-22T12:58:26.197Z,30.2
2017-10-22T12:59:32.710Z,30.2
2017-10-22T13:00:27.972Z,30.1
2017-10-22T13:01:26.364Z,30.1
2017-10-22T13:02:27.751Z,30.1
2017-10-22T13:03:26.450Z,30
2017-10-22T13:04:27.852Z,30
2017-10-22T13:05:26.621Z,30
2017-10-22T13:06:26.388Z,29.9
2017-10-22T13:07:26.736Z,29.9
2017-10-22T13:08:26.567Z,29.9
2017-10-22T13:09:28.272Z,29.8
2017-10-22T13:10:28.611Z,29.8
2017-10-22T13:11:26.753Z,29.8
2017-10-22T13:12:28.744Z,29.8
2017-10-22T13:13:27.096Z,29.8
2017-10-22T13:14:27.251Z,29.8
2017-10-22T13:20:00.514Z,29.9
2017-10-22T13:20:58.891Z,29.9
2017-10-22T13:21:59.200Z,29.8
2017-10-22T13:22:58.988Z,29.9
2017-10-22T13:23:59.074Z,29.9
2017-10-22T13:24:59.177Z,29.9
2017-10-22T13:25:59.188Z,29.9
2017-10-22T13:27:00.783Z,29.9
2017-10-22T13:28:00.813Z,29.9
2017-10-22T13:29:00.928Z,30
2017-10-22T13:30:01.276Z,30